Time;durP1;ratioP1;P1;durP2;ratioP2;P2;SDS_P1;SDS_P2;PMS_P1;PMS_P2;Temp;Humidity;BMP_temperature;BMP_pressure;BME280_temperature;BME280_humidity;BME280_pressure;Samples;Min_cycle;Max_cycle;Signal;HPM_P1;HPM_P2
2021/05/28 00:02:18;;;;;;;7.18;6.10;;;;;;;10.47;100.00;100944.03;3531752;40;20071;-50
2021/05/28 00:04:45;;;;;;;7.25;6.45;;;;;;;10.56;100.00;100944.31;3531997;40;20054;-57
2021/05/28 00:07:12;;;;;;;7.45;6.32;;;;;;;10.42;100.00;100941.34;3531735;40;20422;-48
2021/05/28 00:09:40;;;;;;;9.32;6.75;;;;;;;10.38;100.00;100943.75;3531724;40;20077;-51
2021/05/28 00:12:08;;;;;;;8.13;7.15;;;;;;;10.07;100.00;100947.00;3522658;40;20058;-47
2021/05/28 00:14:35;;;;;;;9.02;6.82;;;;;;;10.32;100.00;100957.25;3530971;40;20148;-47
2021/05/28 00:17:02;;;;;;;7.68;6.82;;;;;;;10.28;100.00;100957.97;3531586;40;20055;-51
2021/05/28 00:19:30;;;;;;;10.15;8.10;;;;;;;9.92;100.00;100967.84;3531689;40;20438;-49
2021/05/28 00:21:57;;;;;;;9.75;7.55;;;;;;;10.24;100.00;100974.03;3531882;40;20075;-47
2021/05/28 00:24:24;;;;;;;10.75;8.20;;;;;;;10.22;100.00;100970.56;3531886;40;20058;-49
2021/05/28 00:26:51;;;;;;;9.82;7.70;;;;;;;10.27;100.00;100970.72;3531870;40;20050;-50
2021/05/28 00:29:18;;;;;;;8.45;7.45;;;;;;;10.37;100.00;100972.75;3531383;40;20452;-47
2021/05/28 00:31:45;;;;;;;9.27;7.90;;;;;;;10.13;100.00;100965.13;3531580;40;20065;-51
2021/05/28 00:34:12;;;;;;;9.82;8.27;;;;;;;10.11;100.00;100966.75;3531953;40;20095;-49
2021/05/28 00:36:39;;;;;;;13.60;8.30;;;;;;;10.12;100.00;100971.94;3531389;40;20054;-50
2021/05/28 00:39:06;;;;;;;11.15;8.27;;;;;;;10.22;100.00;100974.81;3531651;40;20050;-49
2021/05/28 00:41:33;;;;;;;10.05;7.47;;;;;;;10.15;100.00;100974.59;3531401;40;20098;-52
2021/05/28 00:44:01;;;;;;;8.95;7.78;;;;;;;10.28;100.00;100978.44;3531444;40;20064;-49
2021/05/28 00:46:28;;;;;;;11.30;8.65;;;;;;;10.28;100.00;100977.56;3531328;40;20102;-47
2021/05/28 00:48:55;;;;;;;8.93;8.00;;;;;;;10.10;100.00;100980.38;3531568;40;20063;-55
2021/05/28 00:51:23;;;;;;;11.55;8.20;;;;;;;10.14;100.00;100982.22;3531600;40;20047;-50
2021/05/28 00:53:51;;;;;;;11.48;7.75;;;;;;;10.13;100.00;100978.78;3527673;40;20061;-49
2021/05/28 00:56:18;;;;;;;9.13;8.23;;;;;;;10.06;100.00;100987.09;3530836;40;20055;-47
2021/05/28 00:58:48;;;;;;;8.82;8.02;;;;;;;10.06;100.00;100983.66;3531353;40;20095;-49
2021/05/28 01:01:15;;;;;;;9.00;8.10;;;;;;;10.12;100.00;100989.84;3531302;40;20348;-54
2021/05/28 01:03:42;;;;;;;9.07;8.18;;;;;;;10.36;100.00;100996.63;3531058;40;20085;-58
2021/05/28 01:06:09;;;;;;;10.93;7.88;;;;;;;10.24;100.00;100986.84;3530978;40;20098;-54
2021/05/28 01:08:36;;;;;;;9.50;7.90;;;;;;;10.28;100.00;100993.78;3531173;40;20069;-55
2021/05/28 01:11:03;;;;;;;9.05;8.15;;;;;;;10.54;100.00;100994.63;3531228;40;20389;-54
2021/05/28 01:13:30;;;;;;;13.50;7.93;;;;;;;10.33;100.00;100999.94;3531269;40;20491;-53
2021/05/28 01:15:57;;;;;;;12.32;7.68;;;;;;;10.58;100.00;100993.88;3531151;40;20058;-51
2021/05/28 01:18:24;;;;;;;8.93;7.93;;;;;;;10.39;100.00;101001.81;3531720;40;20319;-50
2021/05/28 01:20:51;;;;;;;8.93;7.97;;;;;;;10.64;100.00;100999.19;3527963;40;20035;-53
2021/05/28 01:23:18;;;;;;;11.20;8.80;;;;;;;10.48;100.00;100996.09;3531195;40;20067;-49
2021/05/28 01:25:45;;;;;;;8.80;7.55;;;;;;;10.39;100.00;100996.69;3522725;40;20796;-50
2021/05/28 01:28:12;;;;;;;13.35;8.30;;;;;;;10.55;100.00;101001.47;3532882;40;20564;-55
2021/05/28 01:30:39;;;;;;;9.55;8.52;;;;;;;10.49;100.00;101001.25;3532698;40;20080;-58
2021/05/28 01:33:06;;;;;;;9.57;8.15;;;;;;;10.35;100.00;101003.44;3532701;40;20058;-47
2021/05/28 01:35:33;;;;;;;9.75;8.10;;;;;;;10.12;100.00;101012.88;3532653;40;20476;-55
2021/05/28 01:38:10;;;;;;;9.68;8.68;;;;;;;10.33;100.00;101010.16;3532620;40;20436;-48
2021/05/28 01:40:40;;;;;;;10.30;8.30;;;;;;;10.10;100.00;101005.97;3532726;40;20093;-51
2021/05/28 01:43:07;;;;;;;11.15;8.52;;;;;;;10.13;100.00;101011.19;3532563;40;20067;-52
2021/05/28 01:45:34;;;;;;;9.05;8.00;;;;;;;10.39;100.00;101012.91;3532812;40;20102;-52
2021/05/28 01:48:04;;;;;;;11.73;8.48;;;;;;;10.43;100.00;101008.75;3532782;40;20375;-53
2021/05/28 01:50:44;;;;;;;10.60;8.30;;;;;;;10.33;100.00;101017.84;3531833;40;20090;-56
2021/05/28 01:53:16;;;;;;;9.15;8.20;;;;;;;10.08;100.00;101017.84;3532286;40;20068;-54
2021/05/28 01:55:43;;;;;;;13.15;8.80;;;;;;;9.95;100.00;101016.56;3531984;40;20065;-50
2021/05/28 01:58:13;;;;;;;9.73;8.60;;;;;;;10.33;100.00;101016.97;3532606;40;20392;-52
2021/05/28 02:00:41;;;;;;;10.70;8.80;;;;;;;10.38;100.00;101018.84;3532438;40;20631;-53
2021/05/28 02:03:08;;;;;;;10.77;9.38;;;;;;;10.12;100.00;101022.22;3532393;40;20067;-50
2021/05/28 02:05:36;;;;;;;13.90;9.05;;;;;;;10.23;100.00;101026.03;3532200;40;20680;-59
2021/05/28 02:08:04;;;;;;;10.93;9.23;;;;;;;10.17;100.00;101026.69;3532260;40;20069;-51
2021/05/28 02:10:32;;;;;;;10.77;9.68;;;;;;;10.20;100.00;101024.22;3532153;40;20091;-53
2021/05/28 02:12:59;;;;;;;11.23;9.40;;;;;;;10.31;100.00;101026.31;3532420;40;20055;-49
2021/05/28 02:15:27;;;;;;;11.23;8.80;;;;;;;10.35;100.00;101026.47;3532483;40;20058;-55
2021/05/28 02:17:54;;;;;;;11.85;9.30;;;;;;;10.31;100.00;101019.50;3532785;40;20065;-53
2021/05/28 02:20:22;;;;;;;11.55;9.43;;;;;;;10.41;100.00;101018.97;3532647;40;20053;-53
2021/05/28 02:22:49;;;;;;;10.25;8.90;;;;;;;10.36;100.00;101024.78;3532226;40;20114;-47
2021/05/28 02:25:16;;;;;;;10.48;9.38;;;;;;;10.36;100.00;101027.31;3532523;40;20082;-55
2021/05/28 02:27:44;;;;;;;13.15;9.25;;;;;;;10.38;100.00;101023.97;3532079;40;20078;-53
2021/05/28 02:30:13;;;;;;;10.52;9.15;;;;;;;10.26;100.00;101021.06;3532525;40;20098;-48
2021/05/28 02:32:40;;;;;;;11.23;9.40;;;;;;;10.63;100.00;101019.63;3532663;40;20774;-58
2021/05/28 02:35:10;;;;;;;11.40;10.20;;;;;;;10.32;100.00;101022.94;3532695;40;20122;-49
2021/05/28 02:37:38;;;;;;;13.10;10.93;;;;;;;10.48;100.00;101025.13;3531777;40;20090;-49
2021/05/28 02:40:06;;;;;;;10.98;9.88;;;;;;;10.57;100.00;101027.13;3532482;40;20055;-51
2021/05/28 02:42:34;;;;;;;13.90;9.38;;;;;;;10.56;100.00;101033.94;3532230;40;20057;-50
2021/05/28 02:45:05;;;;;;;10.80;9.60;;;;;;;10.65;100.00;101033.34;3532410;40;20110;-47
2021/05/28 02:47:32;;;;;;;11.80;9.48;;;;;;;10.47;100.00;101031.09;3532587;40;20409;-49
2021/05/28 02:49:59;;;;;;;10.77;9.68;;;;;;;10.63;100.00;101025.63;3531941;40;20081;-56
2021/05/28 02:52:28;;;;;;;11.38;8.90;;;;;;;10.47;100.00;101030.22;3532139;40;20086;-53
2021/05/28 02:54:55;;;;;;;11.15;9.43;;;;;;;10.68;100.00;101034.31;3523327;40;20391;-52
2021/05/28 02:57:22;;;;;;;15.27;9.60;;;;;;;10.40;100.00;101026.59;3532434;40;20059;-47
2021/05/28 02:59:49;;;;;;;11.15;9.20;;;;;;;10.48;100.00;101021.72;3528661;40;20077;-55
2021/05/28 03:02:18;;;;;;;12.63;9.57;;;;;;;10.24;100.00;101030.34;3531940;40;20095;-48
2021/05/28 03:04:45;;;;;;;9.43;8.40;;;;;;;10.73;100.00;101025.91;3531744;40;20071;-57
2021/05/28 03:07:12;;;;;;;8.85;7.90;;;;;;;10.74;100.00;101040.44;3532062;40;20074;-52
2021/05/28 03:09:40;;;;;;;10.25;7.63;;;;;;;10.65;100.00;101044.47;3532583;40;20049;-58
2021/05/28 03:12:11;;;;;;;10.45;8.00;;;;;;;10.57;100.00;101040.78;3532008;40;20163;-49
2021/05/28 03:14:38;;;;;;;7.85;7.05;;;;;;;10.65;100.00;101053.84;3532421;40;20062;-47
2021/05/28 03:17:05;;;;;;;11.35;7.40;;;;;;;10.73;100.00;101051.53;3532103;40;20083;-52
2021/05/28 03:19:41;;;;;;;9.52;8.02;;;;;;;10.59;100.00;101051.97;3532339;40;20106;-53
2021/05/28 03:24:56;;;;;;;8.25;7.13;;;;;;;10.71;100.00;101065.13;3529031;40;20054;-58
2021/05/28 03:27:23;;;;;;;7.40;6.65;;;;;;;10.67;100.00;101057.31;3532415;40;20061;-56
2021/05/28 03:29:50;;;;;;;8.50;7.10;;;;;;;10.66;100.00;101060.69;3531664;40;20057;-55
2021/05/28 03:32:21;;;;;;;9.30;6.60;;;;;;;10.72;100.00;101066.00;3532228;40;20062;-53
2021/05/28 03:34:48;;;;;;;7.80;6.55;;;;;;;10.59;100.00;101064.78;3532298;40;20091;-53
2021/05/28 03:37:16;;;;;;;6.93;6.30;;;;;;;10.74;100.00;101077.19;3531832;40;20071;-52
2021/05/28 03:39:46;;;;;;;7.15;6.18;;;;;;;10.57;100.00;101075.78;3531400;40;20054;-55
2021/05/28 03:42:13;;;;;;;8.05;5.75;;;;;;;10.73;100.00;101085.69;3531562;40;20051;-47
2021/05/28 03:44:41;;;;;;;6.63;5.85;;;;;;;10.69;100.00;101077.03;3531766;40;20130;-47
2021/05/28 03:47:08;;;;;;;7.20;6.20;;;;;;;10.79;100.00;101079.88;3531460;40;20051;-51
2021/05/28 03:49:35;;;;;;;8.80;5.20;;;;;;;10.59;100.00;101081.81;3531500;40;20098;-53
2021/05/28 03:52:02;;;;;;;7.30;5.53;;;;;;;10.48;100.00;101085.72;3531766;40;20058;-52
2021/05/28 03:54:29;;;;;;;6.15;4.85;;;;;;;10.53;100.00;101092.72;3531696;40;20095;-55
2021/05/28 03:56:56;;;;;;;6.18;4.45;;;;;;;10.49;100.00;101087.44;3531518;40;20057;-49
2021/05/28 03:59:23;;;;;;;13.45;5.07;;;;;;;10.30;100.00;101088.53;3532235;40;20059;-54
2021/05/28 04:01:50;;;;;;;5.72;4.07;;;;;;;10.33;100.00;101092.09;3531509;40;20059;-51
2021/05/28 04:04:17;;;;;;;4.97;4.07;;;;;;;10.40;100.00;101093.16;3531715;40;20090;-57
2021/05/28 04:06:44;;;;;;;7.05;4.03;;;;;;;10.28;100.00;101093.63;3531833;40;20052;-56
2021/05/28 04:09:11;;;;;;;5.25;3.33;;;;;;;10.44;100.00;101097.53;3531554;40;20058;-56
2021/05/28 04:11:38;;;;;;;7.82;3.50;;;;;;;10.49;100.00;101097.69;3531697;40;20049;-57
2021/05/28 04:14:05;;;;;;;4.57;3.40;;;;;;;10.39;100.00;101094.84;3531922;40;20059;-57
2021/05/28 04:16:34;;;;;;;5.90;3.30;;;;;;;10.31;100.00;101103.97;3531650;40;20055;-53
2021/05/28 04:19:01;;;;;;;3.63;2.90;;;;;;;10.31;100.00;101101.41;3531926;40;20051;-56
2021/05/28 04:21:28;;;;;;;3.40;3.10;;;;;;;10.33;100.00;101104.00;3531990;40;20082;-52
2021/05/28 04:23:55;;;;;;;3.53;2.92;;;;;;;10.40;100.00;101111.09;3532023;40;20331;-52
2021/05/28 04:26:22;;;;;;;3.70;3.20;;;;;;;10.42;100.00;101107.75;3531879;40;20063;-55
2021/05/28 04:28:49;;;;;;;3.58;3.30;;;;;;;10.54;100.00;101106.38;3531384;40;20049;-48
2021/05/28 04:31:16;;;;;;;6.07;3.00;;;;;;;10.44;100.00;101105.22;3531573;40;20085;-55
2021/05/28 04:33:43;;;;;;;4.30;3.15;;;;;;;10.63;100.00;101119.50;3531887;40;20105;-51
2021/05/28 04:36:10;;;;;;;5.82;3.45;;;;;;;10.31;100.00;101113.34;3531580;40;20074;-54
2021/05/28 04:38:38;;;;;;;7.55;2.97;;;;;;;10.62;100.00;101113.50;3531467;40;20079;-52
2021/05/28 04:41:05;;;;;;;3.10;2.90;;;;;;;10.56;100.00;101112.44;3531590;40;20078;-57
2021/05/28 04:43:33;;;;;;;3.60;2.67;;;;;;;10.58;100.00;101116.78;3531711;40;20085;-51
2021/05/28 04:46:00;;;;;;;5.80;3.20;;;;;;;10.42;100.00;101115.44;3531558;40;20059;-47
2021/05/28 04:48:27;;;;;;;3.45;3.15;;;;;;;10.62;100.00;101121.19;3531698;40;20448;-56
2021/05/28 04:50:54;;;;;;;4.88;3.97;;;;;;;10.94;99.74;101123.91;3528467;40;20041;-47
2021/05/28 04:53:21;;;;;;;3.88;3.28;;;;;;;11.05;99.03;101137.94;3531467;40;20384;-53
2021/05/28 04:55:48;;;;;;;3.50;2.80;;;;;;;10.99;98.34;101129.16;3531255;40;20055;-47
2021/05/28 04:58:15;;;;;;;5.18;3.78;;;;;;;11.00;98.68;101141.16;3531149;40;20090;-57
2021/05/28 05:00:43;;;;;;;6.97;3.50;;;;;;;10.86;99.04;101143.28;3530575;40;20051;-47
2021/05/28 05:03:10;;;;;;;3.75;3.03;;;;;;;10.88;99.13;101141.66;3532541;40;20687;-52
2021/05/28 05:05:37;;;;;;;6.20;3.30;;;;;;;11.19;98.02;101152.03;3535325;40;20053;-59
2021/05/28 05:08:04;;;;;;;5.32;3.10;;;;;;;11.29;98.08;101144.63;3538765;40;20761;-55
2021/05/28 05:10:31;;;;;;;5.05;3.67;;;;;;;11.59;95.91;101142.94;3534786;40;20066;-53
2021/05/28 05:12:58;;;;;;;3.40;3.03;;;;;;;11.41;97.13;101148.41;3532508;40;20054;-54
2021/05/28 05:15:25;;;;;;;4.05;3.47;;;;;;;11.69;94.46;101146.63;3532539;40;20059;-53
2021/05/28 05:17:52;;;;;;;5.30;3.35;;;;;;;11.45;95.83;101144.25;3532763;40;20087;-55
2021/05/28 05:20:19;;;;;;;4.90;3.58;;;;;;;11.61;95.93;101154.13;3532798;40;20583;-52
2021/05/28 05:22:46;;;;;;;4.78;3.13;;;;;;;11.84;93.67;101154.81;3532498;40;20063;-57
2021/05/28 05:25:13;;;;;;;5.30;3.50;;;;;;;11.79;93.38;101158.94;3532684;40;20053;-55
2021/05/28 05:27:40;;;;;;;5.85;3.45;;;;;;;11.94;93.93;101163.66;3532377;40;20467;-52
2021/05/28 05:30:08;;;;;;;6.38;4.10;;;;;;;11.84;94.53;101165.09;3532769;40;20091;-53
2021/05/28 05:32:35;;;;;;;4.78;3.50;;;;;;;12.11;94.17;101169.22;3532569;40;20053;-57
2021/05/28 05:35:03;;;;;;;4.80;3.63;;;;;;;12.39;92.45;101168.28;3532751;40;20043;-54
2021/05/28 05:37:30;;;;;;;14.95;8.25;;;;;;;12.20;93.33;101172.03;3532332;40;20113;-51
2021/05/28 05:39:58;;;;;;;7.78;6.20;;;;;;;12.16;92.35;101170.25;3532478;40;20340;-54
2021/05/28 05:42:25;;;;;;;5.97;3.63;;;;;;;12.30;92.98;101168.91;3532732;40;20094;-57
2021/05/28 05:44:52;;;;;;;4.30;3.50;;;;;;;12.19;93.06;101172.88;3532659;40;20816;-56
2021/05/28 05:47:19;;;;;;;5.05;3.63;;;;;;;12.00;94.76;101173.19;3532372;40;20711;-51
2021/05/28 05:49:47;;;;;;;4.80;4.18;;;;;;;12.14;93.87;101177.00;3532606;40;20058;-51
2021/05/28 05:52:15;;;;;;;7.78;4.22;;;;;;;12.24;92.84;101173.84;3532411;40;20055;-50
2021/05/28 05:54:42;;;;;;;7.32;5.10;;;;;;;12.12;92.60;101176.13;3532631;40;20065;-55
2021/05/28 05:57:10;;;;;;;6.03;5.18;;;;;;;12.06;92.92;101181.06;3532478;40;20065;-51
2021/05/28 05:59:39;;;;;;;6.97;5.53;;;;;;;12.14;93.93;101184.72;3532178;40;20047;-53
2021/05/28 06:02:10;;;;;;;6.10;4.40;;;;;;;11.81;94.09;101188.06;3532442;40;20059;-58
2021/05/28 06:04:38;;;;;;;5.82;4.43;;;;;;;11.67;95.86;101189.34;3531357;40;20094;-48
2021/05/28 06:07:05;;;;;;;5.25;4.63;;;;;;;11.60;95.25;101187.41;3523305;40;20329;-51
2021/05/28 06:09:32;;;;;;;7.43;5.00;;;;;;;11.78;95.25;101194.78;3532099;40;20061;-56
2021/05/28 06:11:59;;;;;;;6.85;4.85;;;;;;;11.62;97.00;101199.47;3532266;40;20065;-51
2021/05/28 06:14:27;;;;;;;5.25;4.78;;;;;;;11.45;95.69;101200.66;3532309;40;20051;-50
2021/05/28 06:16:54;;;;;;;5.50;5.00;;;;;;;11.63;97.11;101200.34;3529663;40;20069;-49
2021/05/28 06:19:21;;;;;;;5.55;4.78;;;;;;;11.41;97.41;101211.66;3532589;40;20077;-51
2021/05/28 06:21:49;;;;;;;5.53;4.78;;;;;;;11.48;98.58;101204.19;3532172;40;20070;-48
2021/05/28 06:24:17;;;;;;;5.38;4.85;;;;;;;11.52;97.96;101201.72;3532437;40;20084;-60
2021/05/28 06:26:44;;;;;;;5.85;5.25;;;;;;;11.62;97.81;101206.31;3530252;40;20055;-54
2021/05/28 06:29:17;;;;;;;7.40;6.20;;;;;;;11.71;95.74;101201.44;3532428;40;20155;-57
2021/05/28 06:31:44;;;;;;;6.50;5.75;;;;;;;11.69;97.04;101208.22;3531833;40;20341;-52
2021/05/28 06:34:13;;;;;;;5.82;5.22;;;;;;;11.64;97.46;101204.63;3532508;40;20047;-59
2021/05/28 06:36:40;;;;;;;6.50;5.97;;;;;;;11.84;96.44;101208.72;3532254;40;20051;-54
2021/05/28 06:39:10;;;;;;;6.70;5.90;;;;;;;11.72;96.90;101204.03;3533200;40;20070;-54
2021/05/28 06:41:38;;;;;;;6.95;6.13;;;;;;;11.75;97.91;101213.53;3535998;40;20474;-58
2021/05/28 06:44:06;;;;;;;7.70;5.45;;;;;;;12.00;95.36;101210.00;3533698;40;20067;-57
2021/05/28 06:46:35;;;;;;;10.38;5.22;;;;;;;11.81;97.66;101217.97;3531473;40;20095;-56
2021/05/28 06:49:02;;;;;;;6.97;5.50;;;;;;;12.18;94.28;101223.34;3531046;40;20168;-51
2021/05/28 06:51:30;;;;;;;7.55;5.63;;;;;;;11.99;96.19;101226.25;3531225;40;20324;-55
2021/05/28 06:53:57;;;;;;;6.28;5.80;;;;;;;12.15;94.16;101230.09;3531346;40;20068;-51
2021/05/28 06:56:24;;;;;;;6.30;5.55;;;;;;;12.64;93.04;101231.44;3531243;40;20499;-53
2021/05/28 06:58:51;;;;;;;7.65;6.10;;;;;;;13.00;91.09;101234.91;3531031;40;20055;-49
2021/05/28 07:01:18;;;;;;;5.50;5.00;;;;;;;13.25;89.96;101233.81;3530494;40;20475;-53
2021/05/28 07:03:45;;;;;;;6.45;5.68;;;;;;;13.03;90.11;101228.97;3531717;40;20534;-53
2021/05/28 07:06:12;;;;;;;6.25;5.22;;;;;;;13.17;88.54;101227.63;3531438;40;20068;-53
2021/05/28 07:08:39;;;;;;;5.32;4.93;;;;;;;13.32;88.34;101229.72;3531316;40;20059;-52
2021/05/28 07:11:07;;;;;;;5.38;4.78;;;;;;;13.74;89.17;101234.06;3531263;40;20071;-49
2021/05/28 07:13:34;;;;;;;5.05;4.50;;;;;;;13.72;87.07;101234.03;3531644;40;20059;-58
2021/05/28 07:16:02;;;;;;;4.82;4.32;;;;;;;13.89;87.56;101246.41;3531643;40;20082;-57
2021/05/28 07:18:28;;;;;;;3.97;3.50;;;;;;;13.96;86.83;101253.44;3531724;40;20050;-58
2021/05/28 07:20:56;;;;;;;4.15;3.85;;;;;;;14.01;86.54;101244.09;3531907;40;20061;-54
2021/05/28 07:23:29;;;;;;;4.15;3.60;;;;;;;13.93;89.12;101253.34;3531355;40;20101;-50
2021/05/28 07:25:59;;;;;;;4.88;4.47;;;;;;;13.88;89.46;101253.25;3528832;40;20711;-50
2021/05/28 07:28:32;;;;;;;4.68;4.38;;;;;;;13.97;90.11;101256.03;3531019;40;20081;-58
2021/05/28 07:31:00;;;;;;;5.22;4.70;;;;;;;13.53;90.24;101252.47;3529142;40;20067;-52
2021/05/28 07:33:27;;;;;;;5.85;5.35;;;;;;;13.65;90.88;101257.03;3529081;40;20353;-55
2021/05/28 07:35:55;;;;;;;7.38;5.80;;;;;;;13.54;90.62;101254.19;3529718;40;20294;-53
2021/05/28 07:38:22;;;;;;;6.25;5.75;;;;;;;13.40;94.58;101261.63;3531817;40;20413;-56
2021/05/28 07:40:49;;;;;;;7.55;6.25;;;;;;;13.70;89.82;101266.59;3530706;40;20094;-57
2021/05/28 07:43:16;;;;;;;10.85;6.55;;;;;;;13.74;90.49;101265.81;3531788;40;20054;-53
2021/05/28 07:45:48;;;;;;;11.55;6.68;;;;;;;13.94;91.55;101265.38;3531146;40;20094;-52
2021/05/28 07:48:16;;;;;;;6.88;6.28;;;;;;;13.85;88.45;101275.47;3532029;40;20067;-54
2021/05/28 07:50:46;;;;;;;6.70;6.00;;;;;;;13.61;88.21;101276.69;3531052;40;20504;-57
2021/05/28 07:53:22;;;;;;;6.95;6.28;;;;;;;13.81;90.38;101282.25;3531236;40;20421;-48
2021/05/28 07:55:50;;;;;;;6.38;5.88;;;;;;;14.18;88.25;101276.19;3530907;40;20061;-52
2021/05/28 07:58:18;;;;;;;18.85;6.95;;;;;;;14.13;85.22;101279.50;3527725;40;20058;-53
2021/05/28 08:00:46;;;;;;;14.57;6.53;;;;;;;14.47;86.45;101284.50;3526907;40;20066;-54
2021/05/28 08:03:13;;;;;;;9.20;6.30;;;;;;;14.43;85.71;101277.56;3525709;40;20054;-57
2021/05/28 08:05:40;;;;;;;9.00;5.53;;;;;;;14.58;84.62;101283.88;3527143;40;20055;-55
2021/05/28 08:08:10;;;;;;;5.18;4.30;;;;;;;15.11;82.65;101289.09;3526965;40;20510;-52
2021/05/28 08:10:39;;;;;;;6.00;4.20;;;;;;;14.91;82.84;101284.47;3527426;40;20278;-58
2021/05/28 08:13:06;;;;;;;4.15;3.85;;;;;;;14.84;79.94;101292.97;3526999;40;20102;-59
2021/05/28 08:15:34;;;;;;;3.60;3.30;;;;;;;14.90;80.97;101290.47;3533303;40;20047;-60
2021/05/28 08:18:02;;;;;;;4.03;3.35;;;;;;;14.84;81.84;101292.97;3529823;40;20059;-59
2021/05/28 08:20:29;;;;;;;3.95;3.50;;;;;;;14.49;81.75;101289.72;3526616;40;20066;-55
2021/05/28 08:22:58;;;;;;;5.03;3.55;;;;;;;14.47;82.83;101296.53;3526571;40;20043;-53
2021/05/28 08:25:27;;;;;;;7.53;4.18;;;;;;;14.37;82.74;101290.28;3525502;40;20058;-59
2021/05/28 08:27:55;;;;;;;6.85;4.30;;;;;;;14.32;80.79;101291.91;3526977;40;20816;-52
2021/05/28 08:30:22;;;;;;;12.00;4.22;;;;;;;13.88;86.21;101303.88;3526135;40;20165;-53
2021/05/28 08:32:50;;;;;;;7.45;4.10;;;;;;;14.20;85.32;101297.72;3527111;40;20074;-53
2021/05/28 08:35:17;;;;;;;18.73;5.75;;;;;;;14.15;84.66;101298.47;3525356;40;20095;-55
2021/05/28 08:37:44;;;;;;;15.10;5.78;;;;;;;14.48;84.60;101300.88;3526929;40;20054;-49
2021/05/28 08:40:13;;;;;;;4.20;3.50;;;;;;;14.44;80.04;101297.31;3525927;40;20305;-57
2021/05/28 08:42:42;;;;;;;5.85;3.05;;;;;;;15.00;79.37;101299.25;3526991;40;20070;-58
2021/05/28 08:45:12;;;;;;;2.92;2.63;;;;;;;15.53;75.35;101297.53;3526366;40;20144;-59
2021/05/28 08:47:40;;;;;;;2.55;2.35;;;;;;;15.95;73.79;101293.88;3527155;40;20062;-51
2021/05/28 08:50:09;;;;;;;4.10;3.30;;;;;;;16.17;74.72;101294.97;3526182;40;20055;-54
2021/05/28 08:52:36;;;;;;;3.20;2.75;;;;;;;16.51;72.99;101296.25;3526157;40;20035;-56
2021/05/28 08:55:04;;;;;;;2.60;2.40;;;;;;;16.19;70.55;101284.69;3526700;40;20050;-55
2021/05/28 08:57:32;;;;;;;2.30;2.10;;;;;;;16.17;69.99;101294.97;3526027;40;20662;-53
2021/05/28 08:59:59;;;;;;;3.10;2.60;;;;;;;16.53;68.91;101297.13;3527730;40;20080;-53
2021/05/28 09:02:33;;;;;;;2.70;2.50;;;;;;;16.69;72.01;101295.59;3526079;40;20068;-57
2021/05/28 09:05:23;;;;;;;4.25;2.38;;;;;;;16.84;69.79;101294.91;3527301;40;20077;-55
2021/05/28 09:07:58;;;;;;;2.13;2.03;;;;;;;17.28;66.94;101295.28;3527124;40;20090;-56
2021/05/28 09:10:25;;;;;;;3.10;2.83;;;;;;;17.11;67.82;101304.66;3525880;40;20063;-57
2021/05/28 09:12:52;;;;;;;4.70;2.80;;;;;;;17.50;66.31;101300.63;3527096;40;20078;-51
2021/05/28 09:15:21;;;;;;;2.25;2.05;;;;;;;17.13;66.65;101299.47;3527381;40;20059;-58
2021/05/28 09:17:50;;;;;;;2.13;1.92;;;;;;;16.99;67.44;101292.44;3527050;40;20070;-50
2021/05/28 09:20:20;;;;;;;3.75;1.90;;;;;;;17.37;65.09;101294.47;3525671;40;20090;-57
2021/05/28 09:22:48;;;;;;;2.20;1.65;;;;;;;17.75;59.50;101291.34;3526978;40;20336;-55
2021/05/28 09:25:15;;;;;;;1.88;1.55;;;;;;;17.40;62.53;101291.06;3525832;40;20500;-54
2021/05/28 09:27:50;;;;;;;1.55;1.45;;;;;;;18.07;63.10;101299.25;3527254;40;20080;-52
2021/05/28 09:30:18;;;;;;;4.30;1.80;;;;;;;18.26;60.50;101290.72;3525628;40;20069;-57
2021/05/28 09:32:48;;;;;;;1.83;1.52;;;;;;;18.82;59.77;101302.13;3526800;40;20672;-59
2021/05/28 09:35:21;;;;;;;2.03;1.83;;;;;;;18.99;58.55;101289.16;3525817;40;20055;-57
2021/05/28 09:37:51;;;;;;;2.50;1.98;;;;;;;18.74;59.96;101296.94;3527000;40;20069;-56
2021/05/28 09:40:20;;;;;;;3.85;2.08;;;;;;;17.84;60.23;101291.41;3525717;40;20055;-55
2021/05/28 09:43:01;;;;;;;2.90;2.10;;;;;;;17.24;61.79;101292.66;3528455;40;20066;-53
2021/05/28 09:45:35;;;;;;;3.45;2.10;;;;;;;17.35;63.56;101292.75;3525859;40;20120;-54
2021/05/28 09:48:24;;;;;;;2.22;1.90;;;;;;;18.09;62.07;101294.97;3529778;40;20049;-58
2021/05/28 09:50:54;;;;;;;3.63;1.90;;;;;;;17.89;60.98;101299.19;3535792;40;20063;-59
2021/05/28 09:53:27;;;;;;;2.90;1.85;;;;;;;17.77;62.68;101297.38;3519184;40;20067;-50
2021/05/28 09:55:54;;;;;;;3.60;1.70;;;;;;;18.32;60.97;101298.50;3528029;40;20057;-55
2021/05/28 09:58:22;;;;;;;2.47;1.80;;;;;;;18.23;56.17;101298.47;3526742;40;20051;-57
2021/05/28 10:00:50;;;;;;;2.17;1.30;;;;;;;19.11;57.34;101309.09;3528584;40;20085;-55
2021/05/28 10:03:23;;;;;;;1.92;1.80;;;;;;;18.53;57.53;101299.44;3526897;40;20070;-59
2021/05/28 10:05:53;;;;;;;3.33;1.73;;;;;;;17.54;61.30;101297.22;3528479;40;20114;-57
2021/05/28 10:08:22;;;;;;;2.95;1.70;;;;;;;17.18;62.99;101302.97;3532433;40;20071;-51
2021/05/28 10:10:51;;;;;;;2.92;1.75;;;;;;;16.56;62.95;101306.66;3532438;40;20087;-61
2021/05/28 10:13:21;;;;;;;1.05;0.90;;;;;;;16.58;57.70;101302.34;3531971;40;20590;-58
2021/05/28 10:15:50;;;;;;;2.38;0.70;;;;;;;16.40;58.62;101303.00;3532048;40;20055;-54
2021/05/28 10:18:18;;;;;;;0.88;0.50;;;;;;;16.01;58.62;101306.00;3532034;40;20054;-59
2021/05/28 10:20:48;;;;;;;2.28;0.65;;;;;;;16.15;59.39;101313.91;3532222;40;20098;-53
2021/05/28 10:23:16;;;;;;;0.93;0.70;;;;;;;16.39;59.03;101313.34;3531804;40;20091;-57
2021/05/28 10:25:45;;;;;;;2.17;0.75;;;;;;;16.36;59.44;101316.78;3531956;40;20617;-53
2021/05/28 10:28:19;;;;;;;2.08;0.60;;;;;;;16.03;56.91;101317.19;3530909;40;20066;-57
2021/05/28 10:30:51;;;;;;;1.40;0.40;;;;;;;16.18;58.92;101321.72;3531374;40;20145;-54
2021/05/28 10:33:23;;;;;;;2.90;0.70;;;;;;;17.10;57.44;101323.63;3530065;40;20144;-57
2021/05/28 10:35:54;;;;;;;0.68;0.57;;;;;;;16.81;56.50;101331.09;3532078;40;20077;-56
2021/05/28 10:38:30;;;;;;;1.27;0.60;;;;;;;17.36;55.95;101334.19;3532399;40;20047;-50
2021/05/28 10:41:07;;;;;;;0.57;0.50;;;;;;;18.26;53.74;101339.13;3529299;40;20135;-56
2021/05/28 10:43:38;;;;;;;;;;;;;;;18.36;51.71;101348.66;3532639;40;20050;-58
2021/05/28 10:46:12;;;;;;;0.32;0.32;;;;;;;18.15;50.05;101351.16;3532127;40;20001;-54
2021/05/28 10:48:40;;;;;;;0.50;0.50;;;;;;;18.15;49.99;101354.59;3532042;40;20083;-57
2021/05/28 10:51:09;;;;;;;0.30;0.30;;;;;;;17.37;49.91;101360.94;3531783;40;20114;-53
2021/05/28 10:53:36;;;;;;;0.50;0.32;;;;;;;17.16;52.23;101356.47;3531948;40;20063;-60
2021/05/28 10:56:09;;;;;;;1.08;0.43;;;;;;;17.43;52.99;101356.69;3531939;40;20103;-55
2021/05/28 10:58:57;;;;;;;2.35;0.57;;;;;;;16.64;55.05;101348.09;3531273;40;20094;-59
2021/05/28 11:01:33;;;;;;;2.50;0.70;;;;;;;16.92;55.00;101350.19;3532053;40;20413;-58
2021/05/28 11:04:05;;;;;;;0.52;0.50;;;;;;;16.78;60.17;101344.00;3528988;40;20053;-53
2021/05/28 11:06:53;;;;;;;1.15;0.52;;;;;;;16.34;59.10;101349.47;3522015;40;20150;-56
2021/05/28 11:09:38;;;;;;;0.65;0.60;;;;;;;16.38;61.86;101347.81;3530585;40;20074;-56
2021/05/28 11:12:29;;;;;;;1.17;0.40;;;;;;;16.62;61.46;101352.41;3530522;40;20476;-51
2021/05/28 11:15:14;;;;;;;0.60;0.60;;;;;;;16.73;62.14;101350.81;3527154;40;20133;-60
2021/05/28 11:18:01;;;;;;;2.50;0.50;;;;;;;16.80;61.35;101350.06;3531026;40;20050;-57
2021/05/28 11:20:32;;;;;;;0.50;0.40;;;;;;;17.92;59.04;101351.88;3530943;40;20367;-56
2021/05/28 11:23:06;;;;;;;1.77;0.50;;;;;;;19.07;56.03;101353.22;3529919;40;20050;-57
2021/05/28 11:25:45;;;;;;;0.47;0.40;;;;;;;18.03;58.04;101345.06;3537777;40;20100;-58
2021/05/28 11:28:12;;;;;;;1.08;0.68;;;;;;;17.18;60.85;101355.59;3533748;40;20468;-59
2021/05/28 11:31:00;;;;;;;1.95;0.88;;;;;;;16.81;62.64;101351.78;3531683;40;20068;-57